sensor_id;sensor_type;location;lat;lon;timestamp;temperature;humidity
9776;DHT22;4927;52.472;13.108;2023-05-21T00:00:09;15.40;99.90
9776;DHT22;4927;52.472;13.108;2023-05-21T00:01:12;15.40;99.90
9776;DHT22;4927;52.472;13.108;2023-05-21T00:02:14;15.40;99.90
9776;DHT22;4927;52.472;13.108;2023-05-21T00:03:15;15.40;99.90
9776;DHT22;4927;52.472;13.108;2023-05-21T00:04:17;15.40;99.90
9776;DHT22;4927;52.472;13.108;2023-05-21T00:05:18;15.40;99.90
9776;DHT22;4927;52.472;13.108;2023-05-21T00:06:20;15.40;99.90
9776;DHT22;4927;52.472;13.108;2023-05-21T00:07:22;15.30;99.90
9776;DHT22;4927;52.472;13.108;2023-05-21T00:08:24;15.40;99.90
9776;DHT22;4927;52.472;13.108;2023-05-21T00:09:26;15.30;99.90
9776;DHT22;4927;52.472;13.108;2023-05-21T00:12:10;15.30;99.90
9776;DHT22;4927;52.472;13.108;2023-05-21T00:13:11;15.30;99.90
9776;DHT22;4927;52.472;13.108;2023-05-21T00:14:13;15.30;99.90
9776;DHT22;4927;52.472;13.108;2023-05-21T00:15:14;15.30;99.90
9776;DHT22;4927;52.472;13.108;2023-05-21T00:16:16;15.20;99.90
9776;DHT22;4927;52.472;13.108;2023-05-21T00:17:18;15.30;99.90
9776;DHT22;4927;52.472;13.108;2023-05-21T00:18:19;15.20;99.90
9776;DHT22;4927;52.472;13.108;2023-05-21T00:19:21;15.20;99.90
9776;DHT22;4927;52.472;13.108;2023-05-21T00:20:23;15.20;99.90
9776;DHT22;4927;52.472;13.108;2023-05-21T00:21:24;15.20;99.90
9776;DHT22;4927;52.472;13.108;2023-05-21T00:22:27;15.20;99.90
9776;DHT22;4927;52.472;13.108;2023-05-21T00:23:29;15.20;99.90
9776;DHT22;4927;52.472;13.108;2023-05-21T00:24:30;15.20;99.90
9776;DHT22;4927;52.472;13.108;2023-05-21T00:25:32;15.20;99.90
9776;DHT22;4927;52.472;13.108;2023-05-21T00:26:33;15.10;99.90
9776;DHT22;4927;52.472;13.108;2023-05-21T00:27:35;15.10;99.90
9776;DHT22;4927;52.472;13.108;2023-05-21T00:28:38;15.10;99.90
9776;DHT22;4927;52.472;13.108;2023-05-21T00:29:39;15.10;99.90
9776;DHT22;4927;52.472;13.108;2023-05-21T00:30:41;15.10;99.90
9776;DHT22;4927;52.472;13.108;2023-05-21T00:31:43;15.10;99.90
9776;DHT22;4927;52.472;13.108;2023-05-21T00:32:45;15.10;99.90
9776;DHT22;4927;52.472;13.108;2023-05-21T00:33:46;15.10;99.90
9776;DHT22;4927;52.472;13.108;2023-05-21T00:34:49;15.00;99.90
9776;DHT22;4927;52.472;13.108;2023-05-21T00:35:51;15.00;99.90
9776;DHT22;4927;52.472;13.108;2023-05-21T00:36:52;15.00;99.90
9776;DHT22;4927;52.472;13.108;2023-05-21T00:37:54;15.00;99.90
9776;DHT22;4927;52.472;13.108;2023-05-21T00:38:56;15.00;99.90
9776;DHT22;4927;52.472;13.108;2023-05-21T00:39:58;15.00;99.90
9776;DHT22;4927;52.472;13.108;2023-05-21T00:41:01;15.00;99.90
9776;DHT22;4927;52.472;13.108;2023-05-21T00:42:02;14.90;99.90
9776;DHT22;4927;52.472;13.108;2023-05-21T00:43:05;15.00;99.90
9776;DHT22;4927;52.472;13.108;2023-05-21T00:44:06;14.90;99.90
9776;DHT22;4927;52.472;13.108;2023-05-21T00:45:08;14.90;99.90
9776;DHT22;4927;52.472;13.108;2023-05-21T00:46:12;14.90;99.90
9776;DHT22;4927;52.472;13.108;2023-05-21T00:47:14;14.90;99.90
9776;DHT22;4927;52.472;13.108;2023-05-21T00:48:16;14.90;99.90
9776;DHT22;4927;52.472;13.108;2023-05-21T00:49:18;14.90;99.90
9776;DHT22;4927;52.472;13.108;2023-05-21T00:50:21;14.90;99.90
9776;DHT22;4927;52.472;13.108;2023-05-21T00:51:22;14.90;99.90
9776;DHT22;4927;52.472;13.108;2023-05-21T00:52:23;14.90;99.90
9776;DHT22;4927;52.472;13.108;2023-05-21T00:53:25;14.90;99.90
9776;DHT22;4927;52.472;13.108;2023-05-21T00:54:27;14.90;99.90
9776;DHT22;4927;52.472;13.108;2023-05-21T00:55:28;14.90;99.90
9776;DHT22;4927;52.472;13.108;2023-05-21T00:56:30;14.90;99.90
9776;DHT22;4927;52.472;13.108;2023-05-21T00:57:32;14.90;99.90
9776;DHT22;4927;52.472;13.108;2023-05-21T00:58:33;14.90;99.90
9776;DHT22;4927;52.472;13.108;2023-05-21T00:59:35;14.90;99.90
9776;DHT22;4927;52.472;13.108;2023-05-21T01:00:37;14.90;99.90
9776;DHT22;4927;52.472;13.108;2023-05-21T01:01:39;14.90;99.90
9776;DHT22;4927;52.472;13.108;2023-05-21T01:02:41;14.90;99.90
9776;DHT22;4927;52.472;13.108;2023-05-21T01:03:42;14.90;99.90
9776;DHT22;4927;52.472;13.108;2023-05-21T01:04:44;14.90;99.90
9776;DHT22;4927;52.472;13.108;2023-05-21T01:05:46;14.90;99.90
9776;DHT22;4927;52.472;13.108;2023-05-21T01:06:48;14.90;99.90
9776;DHT22;4927;52.472;13.108;2023-05-21T01:07:51;14.80;99.90
9776;DHT22;4927;52.472;13.108;2023-05-21T01:08:53;14.80;99.90
9776;DHT22;4927;52.472;13.108;2023-05-21T01:09:54;14.80;99.90
9776;DHT22;4927;52.472;13.108;2023-05-21T01:10:56;14.80;99.90
9776;DHT22;4927;52.472;13.108;2023-05-21T01:11:57;14.80;99.90
9776;DHT22;4927;52.472;13.108;2023-05-21T01:12:59;14.80;99.90
9776;DHT22;4927;52.472;13.108;2023-05-21T01:14:01;14.80;99.90
9776;DHT22;4927;52.472;13.108;2023-05-21T01:15:04;14.80;99.90
9776;DHT22;4927;52.472;13.108;2023-05-21T01:16:07;14.80;99.90
9776;DHT22;4927;52.472;13.108;2023-05-21T01:17:08;14.80;99.90
9776;DHT22;4927;52.472;13.108;2023-05-21T01:18:12;14.80;99.90
9776;DHT22;4927;52.472;13.108;2023-05-21T01:19:18;14.80;99.90
9776;DHT22;4927;52.472;13.108;2023-05-21T01:20:19;14.80;99.90
9776;DHT22;4927;52.472;13.108;2023-05-21T01:21:20;14.80;99.90
9776;DHT22;4927;52.472;13.108;2023-05-21T01:22:23;14.70;99.90
9776;DHT22;4927;52.472;13.108;2023-05-21T01:23:25;14.70;99.90
9776;DHT22;4927;52.472;13.108;2023-05-21T01:24:27;14.70;99.90
9776;DHT22;4927;52.472;13.108;2023-05-21T01:25:29;14.70;99.90
9776;DHT22;4927;52.472;13.108;2023-05-21T01:26:30;14.70;99.90
9776;DHT22;4927;52.472;13.108;2023-05-21T01:27:32;14.70;99.90
9776;DHT22;4927;52.472;13.108;2023-05-21T01:28:34;14.70;99.90
9776;DHT22;4927;52.472;13.108;2023-05-21T01:29:35;14.70;99.90
9776;DHT22;4927;52.472;13.108;2023-05-21T01:30:38;14.60;99.90
9776;DHT22;4927;52.472;13.108;2023-05-21T01:33:03;14.60;99.90
9776;DHT22;4927;52.472;13.108;2023-05-21T01:34:04;14.60;99.90
9776;DHT22;4927;52.472;13.108;2023-05-21T01:35:08;14.60;99.90
9776;DHT22;4927;52.472;13.108;2023-05-21T01:36:12;14.60;99.90
9776;DHT22;4927;52.472;13.108;2023-05-21T01:37:15;14.60;99.90
9776;DHT22;4927;52.472;13.108;2023-05-21T01:38:21;14.60;99.90
9776;DHT22;4927;52.472;13.108;2023-05-21T01:39:32;14.60;99.90
9776;DHT22;4927;52.472;13.108;2023-05-21T01:40:35;14.50;99.90
9776;DHT22;4927;52.472;13.108;2023-05-21T01:41:36;14.50;99.90
9776;DHT22;4927;52.472;13.108;2023-05-21T01:42:37;14.50;99.90
9776;DHT22;4927;52.472;13.108;2023-05-21T01:43:40;14.50;99.90
9776;DHT22;4927;52.472;13.108;2023-05-21T01:44:47;14.50;99.90
9776;DHT22;4927;52.472;13.108;2023-05-21T01:45:48;14.50;99.90
9776;DHT22;4927;52.472;13.108;2023-05-21T01:46:50;14.40;99.90
9776;DHT22;4927;52.472;13.108;2023-05-21T01:47:52;14.40;99.90
9776;DHT22;4927;52.472;13.108;2023-05-21T01:48:53;14.40;99.90
9776;DHT22;4927;52.472;13.108;2023-05-21T01:49:55;14.40;99.90
9776;DHT22;4927;52.472;13.108;2023-05-21T01:50:58;14.40;99.90
9776;DHT22;4927;52.472;13.108;2023-05-21T01:51:58;14.30;99.90
9776;DHT22;4927;52.472;13.108;2023-05-21T01:53:00;14.30;99.90
9776;DHT22;4927;52.472;13.108;2023-05-21T01:54:02;14.30;99.90
9776;DHT22;4927;52.472;13.108;2023-05-21T01:55:06;14.30;99.90
9776;DHT22;4927;52.472;13.108;2023-05-21T01:56:07;14.30;99.90
9776;DHT22;4927;52.472;13.108;2023-05-21T01:57:08;14.20;99.90
9776;DHT22;4927;52.472;13.108;2023-05-21T01:58:10;14.20;99.90
9776;DHT22;4927;52.472;13.108;2023-05-21T01:59:12;14.20;99.90
9776;DHT22;4927;52.472;13.108;2023-05-21T02:00:13;14.10;99.90
9776;DHT22;4927;52.472;13.108;2023-05-21T02:01:15;14.10;99.90
9776;DHT22;4927;52.472;13.108;2023-05-21T02:02:17;14.00;99.90
9776;DHT22;4927;52.472;13.108;2023-05-21T02:03:19;14.00;99.90
9776;DHT22;4927;52.472;13.108;2023-05-21T02:04:20;13.90;99.90
9776;DHT22;4927;52.472;13.108;2023-05-21T02:05:22;13.90;99.90
9776;DHT22;4927;52.472;13.108;2023-05-21T02:06:24;13.90;99.90
9776;DHT22;4927;52.472;13.108;2023-05-21T02:07:26;13.80;99.90
9776;DHT22;4927;52.472;13.108;2023-05-21T02:08:27;13.80;99.90
9776;DHT22;4927;52.472;13.108;2023-05-21T02:09:30;13.80;99.90
9776;DHT22;4927;52.472;13.108;2023-05-21T02:10:31;13.80;99.90
9776;DHT22;4927;52.472;13.108;2023-05-21T02:11:33;13.70;99.90
9776;DHT22;4927;52.472;13.108;2023-05-21T02:12:34;13.70;99.90
9776;DHT22;4927;52.472;13.108;2023-05-21T02:13:37;13.70;99.90
9776;DHT22;4927;52.472;13.108;2023-05-21T02:14:38;13.60;99.90
9776;DHT22;4927;52.472;13.108;2023-05-21T02:15:40;13.60;99.90
9776;DHT22;4927;52.472;13.108;2023-05-21T02:16:41;13.60;99.90
9776;DHT22;4927;52.472;13.108;2023-05-21T02:17:44;13.60;99.90
9776;DHT22;4927;52.472;13.108;2023-05-21T02:18:46;13.50;99.90
9776;DHT22;4927;52.472;13.108;2023-05-21T02:19:48;13.50;99.90
9776;DHT22;4927;52.472;13.108;2023-05-21T02:20:50;13.50;99.90
9776;DHT22;4927;52.472;13.108;2023-05-21T02:21:51;13.50;99.90
9776;DHT22;4927;52.472;13.108;2023-05-21T02:22:53;13.50;99.90
9776;DHT22;4927;52.472;13.108;2023-05-21T02:23:55;13.50;99.90
9776;DHT22;4927;52.472;13.108;2023-05-21T02:24:56;13.50;99.90
9776;DHT22;4927;52.472;13.108;2023-05-21T02:25:58;13.50;99.90
9776;DHT22;4927;52.472;13.108;2023-05-21T02:26:59;13.50;99.90
9776;DHT22;4927;52.472;13.108;2023-05-21T02:28:01;13.50;99.90
9776;DHT22;4927;52.472;13.108;2023-05-21T02:29:03;13.50;99.90
9776;DHT22;4927;52.472;13.108;2023-05-21T02:30:06;13.50;99.90
9776;DHT22;4927;52.472;13.108;2023-05-21T02:31:09;13.50;99.90
9776;DHT22;4927;52.472;13.108;2023-05-21T02:32:10;13.50;99.90
9776;DHT22;4927;52.472;13.108;2023-05-21T02:33:14;13.50;99.90
9776;DHT22;4927;52.472;13.108;2023-05-21T02:34:14;13.50;99.90
9776;DHT22;4927;52.472;13.108;2023-05-21T02:35:16;13.50;99.90
9776;DHT22;4927;52.472;13.108;2023-05-21T02:36:18;13.50;99.90
9776;DHT22;4927;52.472;13.108;2023-05-21T02:37:20;13.50;99.90
9776;DHT22;4927;52.472;13.108;2023-05-21T02:38:21;13.50;99.90
9776;DHT22;4927;52.472;13.108;2023-05-21T02:39:23;13.50;99.90
9776;DHT22;4927;52.472;13.108;2023-05-21T02:40:24;13.50;99.90
9776;DHT22;4927;52.472;13.108;2023-05-21T02:41:27;13.50;99.90
9776;DHT22;4927;52.472;13.108;2023-05-21T02:42:29;13.50;99.90
9776;DHT22;4927;52.472;13.108;2023-05-21T02:43:30;13.40;99.90
9776;DHT22;4927;52.472;13.108;2023-05-21T02:44:32;13.40;99.90
9776;DHT22;4927;52.472;13.108;2023-05-21T02:45:33;13.40;99.90
9776;DHT22;4927;52.472;13.108;2023-05-21T02:46:35;13.40;99.90
9776;DHT22;4927;52.472;13.108;2023-05-21T02:47:44;13.40;99.90
9776;DHT22;4927;52.472;13.108;2023-05-21T02:48:45;13.40;99.90
9776;DHT22;4927;52.472;13.108;2023-05-21T02:49:48;13.40;99.90
9776;DHT22;4927;52.472;13.108;2023-05-21T02:50:50;13.40;99.90
9776;DHT22;4927;52.472;13.108;2023-05-21T02:51:52;13.40;99.90
9776;DHT22;4927;52.472;13.108;2023-05-21T02:52:53;13.40;99.90
9776;DHT22;4927;52.472;13.108;2023-05-21T02:53:55;13.30;99.90
9776;DHT22;4927;52.472;13.108;2023-05-21T02:54:57;13.30;99.90
9776;DHT22;4927;52.472;13.108;2023-05-21T02:55:59;13.30;99.90
9776;DHT22;4927;52.472;13.108;2023-05-21T02:57:00;13.30;99.90
9776;DHT22;4927;52.472;13.108;2023-05-21T02:58:02;13.30;99.90
9776;DHT22;4927;52.472;13.108;2023-05-21T02:59:04;13.30;99.90
9776;DHT22;4927;52.472;13.108;2023-05-21T03:00:06;13.30;99.90
9776;DHT22;4927;52.472;13.108;2023-05-21T03:01:09;13.30;99.90
9776;DHT22;4927;52.472;13.108;2023-05-21T03:02:11;13.30;99.90
9776;DHT22;4927;52.472;13.108;2023-05-21T03:03:12;13.30;99.90
9776;DHT22;4927;52.472;13.108;2023-05-21T03:04:14;13.30;99.90
9776;DHT22;4927;52.472;13.108;2023-05-21T03:05:16;13.30;99.90
9776;DHT22;4927;52.472;13.108;2023-05-21T03:06:17;13.30;99.90
9776;DHT22;4927;52.472;13.108;2023-05-21T03:07:19;13.30;99.90
9776;DHT22;4927;52.472;13.108;2023-05-21T03:08:21;13.30;99.90
9776;DHT22;4927;52.472;13.108;2023-05-21T03:09:23;13.30;99.90
9776;DHT22;4927;52.472;13.108;2023-05-21T03:10:24;13.30;99.90
9776;DHT22;4927;52.472;13.108;2023-05-21T03:11:26;13.30;99.90
9776;DHT22;4927;52.472;13.108;2023-05-21T03:12:29;13.40;99.90
9776;DHT22;4927;52.472;13.108;2023-05-21T03:13:30;13.30;99.90
9776;DHT22;4927;52.472;13.108;2023-05-21T03:14:32;13.40;99.90
9776;DHT22;4927;52.472;13.108;2023-05-21T03:15:34;13.30;99.90
9776;DHT22;4927;52.472;13.108;2023-05-21T03:16:35;13.40;99.90
9776;DHT22;4927;52.472;13.108;2023-05-21T03:17:38;13.40;99.90
9776;DHT22;4927;52.472;13.108;2023-05-21T03:18:39;13.40;99.90
9776;DHT22;4927;52.472;13.108;2023-05-21T03:19:41;13.40;99.90
9776;DHT22;4927;52.472;13.108;2023-05-21T03:20:42;13.40;99.90
9776;DHT22;4927;52.472;13.108;2023-05-21T03:21:44;13.40;99.90
9776;DHT22;4927;52.472;13.108;2023-05-21T03:22:46;13.40;99.90
9776;DHT22;4927;52.472;13.108;2023-05-21T03:23:48;13.40;99.90
9776;DHT22;4927;52.472;13.108;2023-05-21T03:24:49;13.40;99.90
9776;DHT22;4927;52.472;13.108;2023-05-21T03:25:51;13.40;99.90
9776;DHT22;4927;52.472;13.108;2023-05-21T03:26:52;13.50;99.90
9776;DHT22;4927;52.472;13.108;2023-05-21T03:27:55;13.50;99.90
9776;DHT22;4927;52.472;13.108;2023-05-21T03:28:56;13.50;99.90
9776;DHT22;4927;52.472;13.108;2023-05-21T03:29:58;13.50;99.90
9776;DHT22;4927;52.472;13.108;2023-05-21T03:31:00;13.50;99.90
9776;DHT22;4927;52.472;13.108;2023-05-21T03:32:02;13.50;99.90
9776;DHT22;4927;52.472;13.108;2023-05-21T03:33:04;13.60;99.90
9776;DHT22;4927;52.472;13.108;2023-05-21T03:34:06;13.50;99.90
9776;DHT22;4927;52.472;13.108;2023-05-21T03:35:08;13.60;99.90
9776;DHT22;4927;52.472;13.108;2023-05-21T03:36:09;13.60;99.90
9776;DHT22;4927;52.472;13.108;2023-05-21T03:37:11;13.60;99.90
9776;DHT22;4927;52.472;13.108;2023-05-21T03:38:13;13.60;99.90
9776;DHT22;4927;52.472;13.108;2023-05-21T03:39:14;13.70;99.90
9776;DHT22;4927;52.472;13.108;2023-05-21T03:40:16;13.70;99.90
9776;DHT22;4927;52.472;13.108;2023-05-21T03:41:17;13.70;99.90
9776;DHT22;4927;52.472;13.108;2023-05-21T03:42:20;13.70;99.90
9776;DHT22;4927;52.472;13.108;2023-05-21T03:43:22;13.70;99.90
9776;DHT22;4927;52.472;13.108;2023-05-21T03:44:24;13.70;99.90
9776;DHT22;4927;52.472;13.108;2023-05-21T03:45:25;13.70;99.90
9776;DHT22;4927;52.472;13.108;2023-05-21T03:46:27;13.70;99.90
9776;DHT22;4927;52.472;13.108;2023-05-21T03:47:29;13.80;99.90
9776;DHT22;4927;52.472;13.108;2023-05-21T03:48:30;13.80;99.90
9776;DHT22;4927;52.472;13.108;2023-05-21T03:49:32;13.80;99.90
9776;DHT22;4927;52.472;13.108;2023-05-21T03:50:34;13.80;99.90
9776;DHT22;4927;52.472;13.108;2023-05-21T03:51:35;13.80;99.90
9776;DHT22;4927;52.472;13.108;2023-05-21T03:52:37;13.80;99.90
9776;DHT22;4927;52.472;13.108;2023-05-21T03:53:38;13.80;99.90
9776;DHT22;4927;52.472;13.108;2023-05-21T03:54:40;13.90;99.90
9776;DHT22;4927;52.472;13.108;2023-05-21T03:55:42;13.90;99.90
9776;DHT22;4927;52.472;13.108;2023-05-21T03:56:43;13.90;99.90
9776;DHT22;4927;52.472;13.108;2023-05-21T03:57:45;13.90;99.90
9776;DHT22;4927;52.472;13.108;2023-05-21T03:58:47;13.90;99.90
9776;DHT22;4927;52.472;13.108;2023-05-21T03:59:49;14.00;99.90
9776;DHT22;4927;52.472;13.108;2023-05-21T04:00:50;14.00;99.90
9776;DHT22;4927;52.472;13.108;2023-05-21T04:01:52;14.00;99.90
9776;DHT22;4927;52.472;13.108;2023-05-21T04:02:53;14.00;99.90
9776;DHT22;4927;52.472;13.108;2023-05-21T04:03:55;14.00;99.90
9776;DHT22;4927;52.472;13.108;2023-05-21T04:04:57;14.00;99.90
9776;DHT22;4927;52.472;13.108;2023-05-21T04:06:01;14.10;99.90
9776;DHT22;4927;52.472;13.108;2023-05-21T04:07:03;14.10;99.90
9776;DHT22;4927;52.472;13.108;2023-05-21T04:08:05;14.10;99.90
9776;DHT22;4927;52.472;13.108;2023-05-21T04:09:06;14.10;99.90
9776;DHT22;4927;52.472;13.108;2023-05-21T04:10:08;14.10;99.90
9776;DHT22;4927;52.472;13.108;2023-05-21T04:11:10;14.20;99.90
9776;DHT22;4927;52.472;13.108;2023-05-21T04:12:12;14.20;99.90
9776;DHT22;4927;52.472;13.108;2023-05-21T04:13:14;14.20;99.90
9776;DHT22;4927;52.472;13.108;2023-05-21T04:14:15;14.20;99.90
9776;DHT22;4927;52.472;13.108;2023-05-21T04:15:17;14.20;99.90
9776;DHT22;4927;52.472;13.108;2023-05-21T04:16:19;14.30;99.90
9776;DHT22;4927;52.472;13.108;2023-05-21T04:17:21;14.30;99.90
9776;DHT22;4927;52.472;13.108;2023-05-21T04:18:23;14.30;99.90
9776;DHT22;4927;52.472;13.108;2023-05-21T04:19:24;14.30;99.90
9776;DHT22;4927;52.472;13.108;2023-05-21T04:20:26;14.40;99.90
9776;DHT22;4927;52.472;13.108;2023-05-21T04:21:27;14.40;99.90
9776;DHT22;4927;52.472;13.108;2023-05-21T04:22:29;14.40;99.90
9776;DHT22;4927;52.472;13.108;2023-05-21T04:23:31;14.40;99.90
9776;DHT22;4927;52.472;13.108;2023-05-21T04:24:33;14.50;99.90
9776;DHT22;4927;52.472;13.108;2023-05-21T04:25:35;14.50;99.90
9776;DHT22;4927;52.472;13.108;2023-05-21T04:26:37;14.60;99.90
9776;DHT22;4927;52.472;13.108;2023-05-21T04:27:39;14.60;99.90
9776;DHT22;4927;52.472;13.108;2023-05-21T04:28:41;14.60;99.90
9776;DHT22;4927;52.472;13.108;2023-05-21T04:29:42;14.60;99.90
9776;DHT22;4927;52.472;13.108;2023-05-21T04:30:45;14.70;99.90
9776;DHT22;4927;52.472;13.108;2023-05-21T04:31:47;14.70;99.90
9776;DHT22;4927;52.472;13.108;2023-05-21T04:32:49;14.70;99.90
9776;DHT22;4927;52.472;13.108;2023-05-21T04:33:51;14.80;99.90
9776;DHT22;4927;52.472;13.108;2023-05-21T04:34:53;14.80;99.90
9776;DHT22;4927;52.472;13.108;2023-05-21T04:35:55;14.80;99.90
9776;DHT22;4927;52.472;13.108;2023-05-21T04:36:56;14.90;99.90
9776;DHT22;4927;52.472;13.108;2023-05-21T04:37:58;14.90;99.90
9776;DHT22;4927;52.472;13.108;2023-05-21T04:39:00;14.90;99.90
9776;DHT22;4927;52.472;13.108;2023-05-21T04:40:01;15.00;99.90
9776;DHT22;4927;52.472;13.108;2023-05-21T04:41:04;15.10;99.90
9776;DHT22;4927;52.472;13.108;2023-05-21T04:42:06;15.10;99.90
9776;DHT22;4927;52.472;13.108;2023-05-21T04:43:08;15.10;99.90
9776;DHT22;4927;52.472;13.108;2023-05-21T04:44:09;15.10;99.90
9776;DHT22;4927;52.472;13.108;2023-05-21T04:45:11;15.20;99.90
9776;DHT22;4927;52.472;13.108;2023-05-21T04:46:12;15.20;99.90
9776;DHT22;4927;52.472;13.108;2023-05-21T04:47:14;15.20;99.90
9776;DHT22;4927;52.472;13.108;2023-05-21T04:48:16;15.30;99.90
9776;DHT22;4927;52.472;13.108;2023-05-21T04:49:18;15.30;99.90
9776;DHT22;4927;52.472;13.108;2023-05-21T04:50:19;15.30;99.90
9776;DHT22;4927;52.472;13.108;2023-05-21T04:51:21;15.40;99.90
9776;DHT22;4927;52.472;13.108;2023-05-21T04:52:23;15.40;99.90
9776;DHT22;4927;52.472;13.108;2023-05-21T04:53:25;15.50;99.90
9776;DHT22;4927;52.472;13.108;2023-05-21T04:54:27;15.50;99.90
9776;DHT22;4927;52.472;13.108;2023-05-21T04:55:28;15.50;99.90
9776;DHT22;4927;52.472;13.108;2023-05-21T04:56:30;15.50;99.90
9776;DHT22;4927;52.472;13.108;2023-05-21T04:57:32;15.60;99.90
9776;DHT22;4927;52.472;13.108;2023-05-21T04:58:33;15.60;99.90
9776;DHT22;4927;52.472;13.108;2023-05-21T04:59:35;15.70;99.90
9776;DHT22;4927;52.472;13.108;2023-05-21T05:00:37;15.70;99.90
9776;DHT22;4927;52.472;13.108;2023-05-21T05:01:38;15.70;99.90
9776;DHT22;4927;52.472;13.108;2023-05-21T05:02:40;15.80;99.90
9776;DHT22;4927;52.472;13.108;2023-05-21T05:03:42;15.90;99.90
9776;DHT22;4927;52.472;13.108;2023-05-21T05:04:44;15.90;99.90
9776;DHT22;4927;52.472;13.108;2023-05-21T05:05:45;16.00;99.90
9776;DHT22;4927;52.472;13.108;2023-05-21T05:06:54;16.00;99.90
9776;DHT22;4927;52.472;13.108;2023-05-21T05:07:55;16.00;99.90
9776;DHT22;4927;52.472;13.108;2023-05-21T05:08:57;16.10;99.90
9776;DHT22;4927;52.472;13.108;2023-05-21T05:09:58;16.10;99.90
9776;DHT22;4927;52.472;13.108;2023-05-21T05:11:00;16.20;99.90
9776;DHT22;4927;52.472;13.108;2023-05-21T05:12:02;16.20;99.90
9776;DHT22;4927;52.472;13.108;2023-05-21T05:13:05;16.30;99.90
9776;DHT22;4927;52.472;13.108;2023-05-21T05:14:08;16.30;99.90
9776;DHT22;4927;52.472;13.108;2023-05-21T05:15:09;16.30;99.90
9776;DHT22;4927;52.472;13.108;2023-05-21T05:16:11;16.40;99.90
9776;DHT22;4927;52.472;13.108;2023-05-21T05:17:14;16.50;99.90
9776;DHT22;4927;52.472;13.108;2023-05-21T05:18:15;16.40;99.90
9776;DHT22;4927;52.472;13.108;2023-05-21T05:19:17;16.50;99.90
9776;DHT22;4927;52.472;13.108;2023-05-21T05:20:19;16.50;99.90
9776;DHT22;4927;52.472;13.108;2023-05-21T05:21:21;16.60;99.90
9776;DHT22;4927;52.472;13.108;2023-05-21T05:22:22;16.60;99.90
9776;DHT22;4927;52.472;13.108;2023-05-21T05:23:24;16.60;99.90
9776;DHT22;4927;52.472;13.108;2023-05-21T05:24:25;16.60;99.90
9776;DHT22;4927;52.472;13.108;2023-05-21T05:25:28;16.70;99.90
9776;DHT22;4927;52.472;13.108;2023-05-21T05:26:29;16.70;99.90
9776;DHT22;4927;52.472;13.108;2023-05-21T05:27:31;16.70;99.90
9776;DHT22;4927;52.472;13.108;2023-05-21T05:28:33;16.80;99.90
9776;DHT22;4927;52.472;13.108;2023-05-21T05:29:35;16.70;99.90
9776;DHT22;4927;52.472;13.108;2023-05-21T05:30:37;16.80;99.90
9776;DHT22;4927;52.472;13.108;2023-05-21T05:31:38;16.80;99.90
9776;DHT22;4927;52.472;13.108;2023-05-21T05:32:40;16.80;99.90
9776;DHT22;4927;52.472;13.108;2023-05-21T05:33:42;16.90;99.90
9776;DHT22;4927;52.472;13.108;2023-05-21T05:34:44;16.90;99.90
9776;DHT22;4927;52.472;13.108;2023-05-21T05:35:45;16.90;99.90
9776;DHT22;4927;52.472;13.108;2023-05-21T05:36:47;17.00;99.90
9776;DHT22;4927;52.472;13.108;2023-05-21T05:37:49;17.00;99.90
9776;DHT22;4927;52.472;13.108;2023-05-21T05:38:51;17.00;99.90
9776;DHT22;4927;52.472;13.108;2023-05-21T05:39:52;17.00;99.90
9776;DHT22;4927;52.472;13.108;2023-05-21T05:40:54;17.10;99.90
9776;DHT22;4927;52.472;13.108;2023-05-21T05:41:55;17.10;99.90
9776;DHT22;4927;52.472;13.108;2023-05-21T05:42:57;17.10;99.90
9776;DHT22;4927;52.472;13.108;2023-05-21T05:43:59;17.10;99.90
9776;DHT22;4927;52.472;13.108;2023-05-21T05:45:00;17.20;99.90
9776;DHT22;4927;52.472;13.108;2023-05-21T05:46:02;17.20;99.90
9776;DHT22;4927;52.472;13.108;2023-05-21T05:47:04;17.20;99.90
9776;DHT22;4927;52.472;13.108;2023-05-21T05:48:06;17.30;99.90
9776;DHT22;4927;52.472;13.108;2023-05-21T05:49:08;17.20;99.90
9776;DHT22;4927;52.472;13.108;2023-05-21T05:50:10;17.30;99.90
9776;DHT22;4927;52.472;13.108;2023-05-21T05:51:11;17.30;99.90
9776;DHT22;4927;52.472;13.108;2023-05-21T05:52:13;17.40;99.90
9776;DHT22;4927;52.472;13.108;2023-05-21T05:53:14;17.40;99.90
9776;DHT22;4927;52.472;13.108;2023-05-21T05:54:16;17.40;99.90
9776;DHT22;4927;52.472;13.108;2023-05-21T05:55:18;17.40;99.90
9776;DHT22;4927;52.472;13.108;2023-05-21T05:56:19;17.40;99.90
9776;DHT22;4927;52.472;13.108;2023-05-21T05:57:21;17.40;99.90
9776;DHT22;4927;52.472;13.108;2023-05-21T05:58:22;17.40;99.90
9776;DHT22;4927;52.472;13.108;2023-05-21T05:59:24;17.50;99.90
9776;DHT22;4927;52.472;13.108;2023-05-21T06:00:26;17.50;99.90
9776;DHT22;4927;52.472;13.108;2023-05-21T06:01:27;17.50;99.90
9776;DHT22;4927;52.472;13.108;2023-05-21T06:02:29;17.50;99.90
9776;DHT22;4927;52.472;13.108;2023-05-21T06:03:31;17.50;99.90
9776;DHT22;4927;52.472;13.108;2023-05-21T06:04:32;17.50;99.90
9776;DHT22;4927;52.472;13.108;2023-05-21T06:05:35;17.60;99.90
9776;DHT22;4927;52.472;13.108;2023-05-21T06:06:37;17.60;99.90
9776;DHT22;4927;52.472;13.108;2023-05-21T06:07:38;17.60;99.90
9776;DHT22;4927;52.472;13.108;2023-05-21T06:08:40;17.60;99.90
9776;DHT22;4927;52.472;13.108;2023-05-21T06:09:42;17.60;99.90
9776;DHT22;4927;52.472;13.108;2023-05-21T06:10:43;17.60;99.90
9776;DHT22;4927;52.472;13.108;2023-05-21T06:11:45;17.60;99.90
9776;DHT22;4927;52.472;13.108;2023-05-21T06:12:47;17.70;99.90
9776;DHT22;4927;52.472;13.108;2023-05-21T06:13:48;17.70;99.90
9776;DHT22;4927;52.472;13.108;2023-05-21T06:14:50;17.70;99.90
9776;DHT22;4927;52.472;13.108;2023-05-21T06:15:59;17.70;99.90
9776;DHT22;4927;52.472;13.108;2023-05-21T06:17:01;17.70;99.90
9776;DHT22;4927;52.472;13.108;2023-05-21T06:18:03;17.80;99.90
9776;DHT22;4927;52.472;13.108;2023-05-21T06:19:05;17.80;99.90
9776;DHT22;4927;52.472;13.108;2023-05-21T06:20:08;17.80;99.90
9776;DHT22;4927;52.472;13.108;2023-05-21T06:21:10;17.80;99.90
9776;DHT22;4927;52.472;13.108;2023-05-21T06:22:11;17.80;99.90
9776;DHT22;4927;52.472;13.108;2023-05-21T06:23:13;17.80;99.90
9776;DHT22;4927;52.472;13.108;2023-05-21T06:24:15;17.80;99.90
9776;DHT22;4927;52.472;13.108;2023-05-21T06:25:16;17.90;99.90
9776;DHT22;4927;52.472;13.108;2023-05-21T06:26:18;17.90;99.90
9776;DHT22;4927;52.472;13.108;2023-05-21T06:27:19;18.00;99.90
9776;DHT22;4927;52.472;13.108;2023-05-21T06:28:21;18.00;99.90
9776;DHT22;4927;52.472;13.108;2023-05-21T06:29:23;18.00;99.90
9776;DHT22;4927;52.472;13.108;2023-05-21T06:30:25;18.00;99.90
9776;DHT22;4927;52.472;13.108;2023-05-21T06:31:27;18.00;99.90
9776;DHT22;4927;52.472;13.108;2023-05-21T06:32:29;18.10;99.90
9776;DHT22;4927;52.472;13.108;2023-05-21T06:33:30;18.10;99.90
9776;DHT22;4927;52.472;13.108;2023-05-21T06:34:32;18.10;99.90
9776;DHT22;4927;52.472;13.108;2023-05-21T06:35:34;18.10;99.90
9776;DHT22;4927;52.472;13.108;2023-05-21T06:36:35;18.20;99.90
9776;DHT22;4927;52.472;13.108;2023-05-21T06:37:37;18.20;99.90
9776;DHT22;4927;52.472;13.108;2023-05-21T06:38:38;18.20;99.90
9776;DHT22;4927;52.472;13.108;2023-05-21T06:39:40;18.20;99.90